Terminal Aerodrome Forecast
Issued by NWS Upton, NY

Home | Current Version | Previous Version | Text Only | Print | Product List | Glossary On
Versions: 1 2 3 4 5 6 7 8 9 10 11 12 13 14 15 16 17 18 19 20 21 22 23 24 25 26 27 28 29 30 31 32 33 34 35 36 37 38 39 40
000
FTUS41 KOKX 260228 AAB
TAFLGA
TAF AMD
KLGA 260228Z 2602/2706 VRB03KT 1/2SM -DZ FG OVC003
     FM260800 30009KT 4SM BR SCT005 OVC045
     FM261000 29010KT P6SM SCT250
     FM261300 29012G18KT P6SM SCT250
     FM262000 27011G18KT P6SM FEW250
     FM262200 26011KT P6SM SKC
     FM270200 VRB05KT P6SM SKC=

USA.gov is the U.S. government's official web portal to all federal, state and local government web resources and services.